sensor_id;sensor_type;location;lat;lon;timestamp;pressure;altitude;pressure_sealevel;temperature;humidity
1472;BME280;963;42.644;23.336;2023-05-25T00:01:29;94120.53;;;18.09;67.69
1472;BME280;963;42.644;23.336;2023-05-25T00:03:54;94129.22;;;18.13;67.85
1472;BME280;963;42.644;23.336;2023-05-25T00:06:20;94142.53;;;18.13;67.60
1472;BME280;963;42.644;23.336;2023-05-25T00:08:46;94133.09;;;18.08;67.61
1472;BME280;963;42.644;23.336;2023-05-25T00:11:13;94145.31;;;18.06;68.14
1472;BME280;963;42.644;23.336;2023-05-25T00:13:38;94139.41;;;17.95;68.56
1472;BME280;963;42.644;23.336;2023-05-25T00:16:05;94148.09;;;17.99;68.48
1472;BME280;963;42.644;23.336;2023-05-25T00:18:33;94148.91;;;17.96;68.76
1472;BME280;963;42.644;23.336;2023-05-25T00:21:02;94144.66;;;17.98;68.45
1472;BME280;963;42.644;23.336;2023-05-25T00:23:30;94143.91;;;17.98;68.57
1472;BME280;963;42.644;23.336;2023-05-25T00:25:56;94151.16;;;17.97;69.08
1472;BME280;963;42.644;23.336;2023-05-25T00:28:21;94153.22;;;17.86;69.40
1472;BME280;963;42.644;23.336;2023-05-25T00:30:47;94132.38;;;17.81;69.36
1472;BME280;963;42.644;23.336;2023-05-25T00:33:13;94150.56;;;17.86;69.50
1472;BME280;963;42.644;23.336;2023-05-25T00:35:38;94138.88;;;17.76;69.48
1472;BME280;963;42.644;23.336;2023-05-25T00:38:04;94148.78;;;17.76;70.08
1472;BME280;963;42.644;23.336;2023-05-25T00:40:29;94150.34;;;17.73;70.03
1472;BME280;963;42.644;23.336;2023-05-25T00:42:54;94148.56;;;17.63;70.18
1472;BME280;963;42.644;23.336;2023-05-25T00:45:21;94161.06;;;17.66;70.00
1472;BME280;963;42.644;23.336;2023-05-25T00:47:50;94150.63;;;17.52;70.44
1472;BME280;963;42.644;23.336;2023-05-25T00:50:19;94145.81;;;17.40;70.28
1472;BME280;963;42.644;23.336;2023-05-25T00:52:47;94163.09;;;17.25;70.87
1472;BME280;963;42.644;23.336;2023-05-25T00:55:15;94144.22;;;17.15;71.40
1472;BME280;963;42.644;23.336;2023-05-25T00:57:46;94160.78;;;17.27;71.00
1472;BME280;963;42.644;23.336;2023-05-25T01:00:15;94151.00;;;17.20;71.42
1472;BME280;963;42.644;23.336;2023-05-25T01:02:43;94149.25;;;17.06;71.66
1472;BME280;963;42.644;23.336;2023-05-25T01:05:10;94152.69;;;17.03;71.78
1472;BME280;963;42.644;23.336;2023-05-25T01:07:38;94154.91;;;17.12;71.89
1472;BME280;963;42.644;23.336;2023-05-25T01:10:06;94165.13;;;17.13;71.68
1472;BME280;963;42.644;23.336;2023-05-25T01:12:37;94162.47;;;17.13;71.39
1472;BME280;963;42.644;23.336;2023-05-25T01:15:05;94162.53;;;17.10;71.39
1472;BME280;963;42.644;23.336;2023-05-25T01:17:30;94162.47;;;17.13;71.27
1472;BME280;963;42.644;23.336;2023-05-25T01:19:56;94163.28;;;17.10;71.65
1472;BME280;963;42.644;23.336;2023-05-25T01:22:34;94168.22;;;17.08;71.67
1472;BME280;963;42.644;23.336;2023-05-25T01:25:17;94148.25;;;16.93;71.25
1472;BME280;963;42.644;23.336;2023-05-25T01:27:51;94154.16;;;16.74;72.01
1472;BME280;963;42.644;23.336;2023-05-25T01:30:20;94158.25;;;16.82;71.01
1472;BME280;963;42.644;23.336;2023-05-25T01:32:48;94157.91;;;16.80;71.31
1472;BME280;963;42.644;23.336;2023-05-25T01:35:13;94152.59;;;16.80;70.80
1472;BME280;963;42.644;23.336;2023-05-25T01:37:44;94150.47;;;16.61;71.10
1472;BME280;963;42.644;23.336;2023-05-25T01:40:11;94145.00;;;16.37;71.98
1472;BME280;963;42.644;23.336;2023-05-25T01:42:36;94141.19;;;16.38;71.40
1472;BME280;963;42.644;23.336;2023-05-25T01:45:02;94132.47;;;16.34;71.81
1472;BME280;963;42.644;23.336;2023-05-25T01:47:32;94139.69;;;16.34;71.87
1472;BME280;963;42.644;23.336;2023-05-25T01:52:34;94118.44;;;16.37;70.85
1472;BME280;963;42.644;23.336;2023-05-25T01:57:28;94138.22;;;16.29;71.22
1472;BME280;963;42.644;23.336;2023-05-25T01:59:56;94129.34;;;16.46;70.64
1472;BME280;963;42.644;23.336;2023-05-25T02:02:24;94130.88;;;16.47;70.29
1472;BME280;963;42.644;23.336;2023-05-25T02:04:52;94142.22;;;16.51;70.06
1472;BME280;963;42.644;23.336;2023-05-25T02:07:18;94112.34;;;16.40;70.31
1472;BME280;963;42.644;23.336;2023-05-25T02:09:43;94133.44;;;16.54;70.51
1472;BME280;963;42.644;23.336;2023-05-25T02:12:09;94152.31;;;16.64;70.27
1472;BME280;963;42.644;23.336;2023-05-25T02:14:34;94141.69;;;16.64;70.24
1472;BME280;963;42.644;23.336;2023-05-25T02:16:59;94144.00;;;16.62;70.12
1472;BME280;963;42.644;23.336;2023-05-25T02:19:26;94147.00;;;16.64;70.62
1472;BME280;963;42.644;23.336;2023-05-25T02:21:52;94153.06;;;16.64;70.81
1472;BME280;963;42.644;23.336;2023-05-25T02:24:18;94139.84;;;16.61;71.57
1472;BME280;963;42.644;23.336;2023-05-25T02:26:43;94150.03;;;16.69;71.42
1472;BME280;963;42.644;23.336;2023-05-25T02:29:09;94153.78;;;16.72;71.62
1472;BME280;963;42.644;23.336;2023-05-25T02:31:36;94147.03;;;16.60;71.54
1472;BME280;963;42.644;23.336;2023-05-25T02:34:01;94165.22;;;16.65;71.44
1472;BME280;963;42.644;23.336;2023-05-25T02:36:27;94178.13;;;16.67;70.93
1472;BME280;963;42.644;23.336;2023-05-25T02:38:52;94166.72;;;16.70;71.15
1472;BME280;963;42.644;23.336;2023-05-25T02:41:18;94166.34;;;16.68;70.97
1472;BME280;963;42.644;23.336;2023-05-25T02:43:45;94175.81;;;16.69;70.63
1472;BME280;963;42.644;23.336;2023-05-25T02:46:10;94186.44;;;16.69;70.36
1472;BME280;963;42.644;23.336;2023-05-25T02:48:36;94179.66;;;16.61;69.96
1472;BME280;963;42.644;23.336;2023-05-25T02:51:01;94179.72;;;16.57;70.57
1472;BME280;963;42.644;23.336;2023-05-25T02:53:28;94177.50;;;16.48;71.31
1472;BME280;963;42.644;23.336;2023-05-25T02:55:53;94212.75;;;16.52;72.02
1472;BME280;963;42.644;23.336;2023-05-25T02:58:19;94188.09;;;16.52;72.25
1472;BME280;963;42.644;23.336;2023-05-25T03:00:44;94191.88;;;16.54;72.46
1472;BME280;963;42.644;23.336;2023-05-25T03:03:10;94179.38;;;16.51;72.61
1472;BME280;963;42.644;23.336;2023-05-25T03:05:36;94176.38;;;16.49;72.91
1472;BME280;963;42.644;23.336;2023-05-25T03:08:02;94199.81;;;16.58;72.63
1472;BME280;963;42.644;23.336;2023-05-25T03:10:28;94195.31;;;16.51;72.37
1472;BME280;963;42.644;23.336;2023-05-25T03:12:53;94190.44;;;16.46;72.58
1472;BME280;963;42.644;23.336;2023-05-25T03:15:18;94190.50;;;16.39;72.73
1472;BME280;963;42.644;23.336;2023-05-25T03:17:44;94201.50;;;16.38;72.79
1472;BME280;963;42.644;23.336;2023-05-25T03:20:10;94192.13;;;16.22;73.21
1472;BME280;963;42.644;23.336;2023-05-25T03:22:35;94204.19;;;16.31;73.09
1472;BME280;963;42.644;23.336;2023-05-25T03:25:02;94207.22;;;16.29;72.96
1472;BME280;963;42.644;23.336;2023-05-25T03:27:27;94208.00;;;16.26;73.09
1472;BME280;963;42.644;23.336;2023-05-25T03:29:53;94203.88;;;16.21;73.03
1472;BME280;963;42.644;23.336;2023-05-25T03:32:18;94198.94;;;16.23;73.16
1472;BME280;963;42.644;23.336;2023-05-25T03:34:44;94193.28;;;16.18;72.88
1472;BME280;963;42.644;23.336;2023-05-25T03:37:10;94203.53;;;16.16;73.13
1472;BME280;963;42.644;23.336;2023-05-25T03:39:35;94207.28;;;16.22;73.08
1472;BME280;963;42.644;23.336;2023-05-25T03:42:01;94231.97;;;16.19;72.91
1472;BME280;963;42.644;23.336;2023-05-25T03:44:27;94217.06;;;16.32;72.80
1472;BME280;963;42.644;23.336;2023-05-25T03:46:53;94220.47;;;16.36;72.80
1472;BME280;963;42.644;23.336;2023-05-25T03:49:18;94199.59;;;16.38;73.10
1472;BME280;963;42.644;23.336;2023-05-25T03:51:43;94206.78;;;16.41;72.71
1472;BME280;963;42.644;23.336;2023-05-25T03:54:09;94216.22;;;16.46;72.32
1472;BME280;963;42.644;23.336;2023-05-25T03:56:34;94201.06;;;16.43;72.09
1472;BME280;963;42.644;23.336;2023-05-25T03:59:00;94218.56;;;16.37;72.19
1472;BME280;963;42.644;23.336;2023-05-25T04:01:25;94209.16;;;16.25;72.30
1472;BME280;963;42.644;23.336;2023-05-25T04:03:51;94218.06;;;15.97;73.18
1472;BME280;963;42.644;23.336;2023-05-25T04:06:20;94220.94;;;16.20;72.48
1472;BME280;963;42.644;23.336;2023-05-25T04:08:45;94217.81;;;16.36;72.17
1472;BME280;963;42.644;23.336;2023-05-25T04:11:12;94207.56;;;16.35;72.08
1472;BME280;963;42.644;23.336;2023-05-25T04:13:37;94232.84;;;16.53;71.68
1472;BME280;963;42.644;23.336;2023-05-25T04:16:05;94223.63;;;16.69;71.43
1472;BME280;963;42.644;23.336;2023-05-25T04:18:30;94242.94;;;16.76;71.40
1472;BME280;963;42.644;23.336;2023-05-25T04:20:56;94237.97;;;16.82;71.35
1472;BME280;963;42.644;23.336;2023-05-25T04:23:22;94229.53;;;16.91;71.73
1472;BME280;963;42.644;23.336;2023-05-25T04:25:47;94212.81;;;16.90;71.79
1472;BME280;963;42.644;23.336;2023-05-25T04:28:15;94234.63;;;17.12;72.09
1472;BME280;963;42.644;23.336;2023-05-25T04:30:42;94233.06;;;17.18;71.89
1472;BME280;963;42.644;23.336;2023-05-25T04:33:08;94243.56;;;17.29;71.74
1472;BME280;963;42.644;23.336;2023-05-25T04:35:36;94245.75;;;17.37;72.31
1472;BME280;963;42.644;23.336;2023-05-25T04:38:01;94244.69;;;17.31;72.65
1472;BME280;963;42.644;23.336;2023-05-25T04:40:27;94252.13;;;17.43;71.91
1472;BME280;963;42.644;23.336;2023-05-25T04:42:52;94245.66;;;17.44;71.49
1472;BME280;963;42.644;23.336;2023-05-25T04:45:19;94263.03;;;17.56;70.89
1472;BME280;963;42.644;23.336;2023-05-25T04:47:45;94265.28;;;17.58;71.40
1472;BME280;963;42.644;23.336;2023-05-25T04:50:12;94255.72;;;17.64;71.43
1472;BME280;963;42.644;23.336;2023-05-25T04:52:38;94258.28;;;17.74;71.33
1472;BME280;963;42.644;23.336;2023-05-25T04:55:03;94259.31;;;17.84;70.09
1472;BME280;963;42.644;23.336;2023-05-25T04:57:29;94253.59;;;17.86;70.43
1472;BME280;963;42.644;23.336;2023-05-25T04:59:56;94233.47;;;17.85;69.95
1472;BME280;963;42.644;23.336;2023-05-25T05:02:21;94240.56;;;17.61;70.50
1472;BME280;963;42.644;23.336;2023-05-25T05:04:47;94231.56;;;17.51;70.78
1472;BME280;963;42.644;23.336;2023-05-25T05:07:16;94227.84;;;17.75;70.51
1472;BME280;963;42.644;23.336;2023-05-25T05:09:41;94212.16;;;17.85;69.55
1472;BME280;963;42.644;23.336;2023-05-25T05:12:07;94225.38;;;17.92;69.71
1472;BME280;963;42.644;23.336;2023-05-25T05:14:32;94239.97;;;18.07;69.28
1472;BME280;963;42.644;23.336;2023-05-25T05:16:58;94214.53;;;18.06;69.41
1472;BME280;963;42.644;23.336;2023-05-25T05:19:23;94240.16;;;18.23;69.07
1472;BME280;963;42.644;23.336;2023-05-25T05:21:49;94242.75;;;18.27;69.51
1472;BME280;963;42.644;23.336;2023-05-25T05:24:14;94224.75;;;18.34;69.41
1472;BME280;963;42.644;23.336;2023-05-25T05:26:40;94236.13;;;18.38;69.16
1472;BME280;963;42.644;23.336;2023-05-25T05:29:06;94236.00;;;18.46;69.12
1472;BME280;963;42.644;23.336;2023-05-25T05:31:31;94250.31;;;18.55;69.19
1472;BME280;963;42.644;23.336;2023-05-25T05:33:56;94243.78;;;18.60;68.70
1472;BME280;963;42.644;23.336;2023-05-25T05:36:22;94243.34;;;18.65;68.36
1472;BME280;963;42.644;23.336;2023-05-25T05:38:47;94248.63;;;18.68;68.29
1472;BME280;963;42.644;23.336;2023-05-25T05:41:13;94244.00;;;18.72;68.39
1472;BME280;963;42.644;23.336;2023-05-25T05:43:39;94252.28;;;18.78;68.73
1472;BME280;963;42.644;23.336;2023-05-25T05:46:07;94260.63;;;18.80;68.80
1472;BME280;963;42.644;23.336;2023-05-25T05:48:33;94271.22;;;18.84;68.46
1472;BME280;963;42.644;23.336;2023-05-25T05:50:58;94277.88;;;18.95;68.04
1472;BME280;963;42.644;23.336;2023-05-25T05:53:24;94264.44;;;18.79;69.31
1472;BME280;963;42.644;23.336;2023-05-25T05:55:49;94263.00;;;18.74;69.17
1472;BME280;963;42.644;23.336;2023-05-25T05:58:18;94270.22;;;18.20;71.73
1472;BME280;963;42.644;23.336;2023-05-25T06:00:43;94273.38;;;18.69;69.47
1472;BME280;963;42.644;23.336;2023-05-25T06:03:09;94262.59;;;18.49;69.24
1472;BME280;963;42.644;23.336;2023-05-25T06:05:34;94275.09;;;18.79;68.95
1472;BME280;963;42.644;23.336;2023-05-25T06:07:59;94280.66;;;18.65;69.86
1472;BME280;963;42.644;23.336;2023-05-25T06:10:25;94256.91;;;18.74;69.60
1472;BME280;963;42.644;23.336;2023-05-25T06:12:51;94261.88;;;18.95;68.45
1472;BME280;963;42.644;23.336;2023-05-25T06:15:16;94278.81;;;18.85;69.28
1472;BME280;963;42.644;23.336;2023-05-25T06:17:42;94258.69;;;19.04;68.06
1472;BME280;963;42.644;23.336;2023-05-25T06:20:08;94254.00;;;19.12;67.90
1472;BME280;963;42.644;23.336;2023-05-25T06:22:34;94266.84;;;19.17;67.95
1472;BME280;963;42.644;23.336;2023-05-25T06:24:59;94267.66;;;19.37;67.61
1472;BME280;963;42.644;23.336;2023-05-25T06:27:25;94267.84;;;19.46;67.69
1472;BME280;963;42.644;23.336;2023-05-25T06:29:50;94251.53;;;19.21;67.78
1472;BME280;963;42.644;23.336;2023-05-25T06:32:16;94258.75;;;19.44;66.89
1472;BME280;963;42.644;23.336;2023-05-25T06:34:41;94265.28;;;19.62;65.85
1472;BME280;963;42.644;23.336;2023-05-25T06:37:07;94259.25;;;19.58;65.68
1472;BME280;963;42.644;23.336;2023-05-25T06:39:32;94267.13;;;19.85;65.25
1472;BME280;963;42.644;23.336;2023-05-25T06:41:58;94276.22;;;19.88;64.68
1472;BME280;963;42.644;23.336;2023-05-25T06:44:23;94244.78;;;19.95;64.93
1472;BME280;963;42.644;23.336;2023-05-25T06:46:48;94279.13;;;20.13;63.89
1472;BME280;963;42.644;23.336;2023-05-25T06:49:14;94264.53;;;20.18;63.94
1472;BME280;963;42.644;23.336;2023-05-25T06:51:39;94268.81;;;20.32;62.88
1472;BME280;963;42.644;23.336;2023-05-25T06:54:05;94271.75;;;20.37;61.96
1472;BME280;963;42.644;23.336;2023-05-25T06:56:32;94273.06;;;20.49;61.89
1472;BME280;963;42.644;23.336;2023-05-25T06:58:58;94266.72;;;20.59;62.03
1472;BME280;963;42.644;23.336;2023-05-25T07:01:23;94266.72;;;20.59;62.87
1472;BME280;963;42.644;23.336;2023-05-25T07:03:49;94262.69;;;20.51;63.19
1472;BME280;963;42.644;23.336;2023-05-25T07:06:14;94270.56;;;20.38;63.49
1472;BME280;963;42.644;23.336;2023-05-25T07:08:41;94252.59;;;20.58;63.21
1472;BME280;963;42.644;23.336;2023-05-25T07:11:06;94264.88;;;20.88;62.61
1472;BME280;963;42.644;23.336;2023-05-25T07:13:34;94254.16;;;20.88;62.69
1472;BME280;963;42.644;23.336;2023-05-25T07:16:00;94253.94;;;20.83;63.74
1472;BME280;963;42.644;23.336;2023-05-25T07:18:25;94256.06;;;21.04;63.18
1472;BME280;963;42.644;23.336;2023-05-25T07:20:51;94261.47;;;21.17;62.94
1472;BME280;963;42.644;23.336;2023-05-25T07:23:17;94254.19;;;21.34;62.23
1472;BME280;963;42.644;23.336;2023-05-25T07:25:43;94237.06;;;21.31;62.32
1472;BME280;963;42.644;23.336;2023-05-25T07:28:08;94253.50;;;21.46;62.94
1472;BME280;963;42.644;23.336;2023-05-25T07:30:34;94253.16;;;21.44;63.42
1472;BME280;963;42.644;23.336;2023-05-25T07:32:59;94254.38;;;21.56;63.17
1472;BME280;963;42.644;23.336;2023-05-25T07:35:25;94259.22;;;21.61;62.58
1472;BME280;963;42.644;23.336;2023-05-25T07:38:02;94261.91;;;21.61;62.30
1472;BME280;963;42.644;23.336;2023-05-25T07:40:28;94251.88;;;21.77;61.53
1472;BME280;963;42.644;23.336;2023-05-25T07:42:54;94260.22;;;21.79;61.14
1472;BME280;963;42.644;23.336;2023-05-25T07:45:20;94268.25;;;21.67;61.83
1472;BME280;963;42.644;23.336;2023-05-25T07:47:45;94273.84;;;21.85;61.79
1472;BME280;963;42.644;23.336;2023-05-25T07:50:11;94279.00;;;21.92;61.02
1472;BME280;963;42.644;23.336;2023-05-25T07:52:36;94273.19;;;21.81;61.52
1472;BME280;963;42.644;23.336;2023-05-25T07:55:05;94261.06;;;21.76;61.07
1472;BME280;963;42.644;23.336;2023-05-25T07:57:31;94278.34;;;21.88;61.02
1472;BME280;963;42.644;23.336;2023-05-25T07:59:57;94265.88;;;21.69;60.57
1472;BME280;963;42.644;23.336;2023-05-25T08:02:22;94288.03;;;21.57;61.18
1472;BME280;963;42.644;23.336;2023-05-25T08:04:48;94278.84;;;21.70;59.41
1472;BME280;963;42.644;23.336;2023-05-25T08:07:13;94286.97;;;21.67;59.69
1472;BME280;963;42.644;23.336;2023-05-25T08:09:39;94282.16;;;21.62;59.32
1472;BME280;963;42.644;23.336;2023-05-25T08:12:04;94294.25;;;21.37;59.70
1472;BME280;963;42.644;23.336;2023-05-25T08:14:29;94309.81;;;21.26;60.52
1472;BME280;963;42.644;23.336;2023-05-25T08:16:55;94305.81;;;21.02;61.78
1472;BME280;963;42.644;23.336;2023-05-25T08:19:20;94309.47;;;20.75;63.28
1472;BME280;963;42.644;23.336;2023-05-25T08:21:46;94317.31;;;20.50;65.06
1472;BME280;963;42.644;23.336;2023-05-25T08:24:11;94326.34;;;20.56;65.67
1472;BME280;963;42.644;23.336;2023-05-25T08:26:37;94334.50;;;20.49;67.74
1472;BME280;963;42.644;23.336;2023-05-25T08:29:04;94348.25;;;20.11;71.22
1472;BME280;963;42.644;23.336;2023-05-25T08:31:31;94351.03;;;20.04;70.96
1472;BME280;963;42.644;23.336;2023-05-25T08:33:57;94336.88;;;20.07;72.33
1472;BME280;963;42.644;23.336;2023-05-25T08:36:24;94341.41;;;20.10;72.88
1472;BME280;963;42.644;23.336;2023-05-25T08:38:50;94364.31;;;19.88;73.84
1472;BME280;963;42.644;23.336;2023-05-25T08:41:16;94347.06;;;19.26;74.37
1472;BME280;963;42.644;23.336;2023-05-25T08:43:41;94364.78;;;18.89;75.00
1472;BME280;963;42.644;23.336;2023-05-25T08:46:08;94359.72;;;19.22;74.32
1472;BME280;963;42.644;23.336;2023-05-25T08:48:34;94353.31;;;18.92;76.27
1472;BME280;963;42.644;23.336;2023-05-25T08:51:03;94374.97;;;18.98;75.77
1472;BME280;963;42.644;23.336;2023-05-25T08:53:34;94370.75;;;19.24;74.21
1472;BME280;963;42.644;23.336;2023-05-25T08:56:00;94364.94;;;19.29;72.56
1472;BME280;963;42.644;23.336;2023-05-25T08:58:32;94374.69;;;19.39;72.83
1472;BME280;963;42.644;23.336;2023-05-25T09:01:03;94370.06;;;18.93;74.84
1472;BME280;963;42.644;23.336;2023-05-25T09:03:32;94370.50;;;19.15;73.95
1472;BME280;963;42.644;23.336;2023-05-25T09:05:59;94377.94;;;19.27;72.95
1472;BME280;963;42.644;23.336;2023-05-25T09:08:25;94376.31;;;19.33;70.72
1472;BME280;963;42.644;23.336;2023-05-25T09:10:52;94399.94;;;19.34;68.48
1472;BME280;963;42.644;23.336;2023-05-25T09:13:19;94377.13;;;19.30;68.33
1472;BME280;963;42.644;23.336;2023-05-25T09:15:45;94383.09;;;19.38;67.58
1472;BME280;963;42.644;23.336;2023-05-25T09:18:10;94372.94;;;19.29;66.80
1472;BME280;963;42.644;23.336;2023-05-25T09:20:36;94382.00;;;19.35;68.22
1472;BME280;963;42.644;23.336;2023-05-25T09:23:01;94383.94;;;19.31;68.71
1472;BME280;963;42.644;23.336;2023-05-25T09:25:28;94382.09;;;19.28;70.47
1472;BME280;963;42.644;23.336;2023-05-25T09:27:55;94385.16;;;19.26;71.95
1472;BME280;963;42.644;23.336;2023-05-25T09:30:23;94376.94;;;19.17;72.35
1472;BME280;963;42.644;23.336;2023-05-25T09:32:49;94386.50;;;19.15;74.28
1472;BME280;963;42.644;23.336;2023-05-25T09:35:15;94366.00;;;19.12;72.73
1472;BME280;963;42.644;23.336;2023-05-25T09:37:41;94351.59;;;19.05;71.43
1472;BME280;963;42.644;23.336;2023-05-25T09:40:08;94368.13;;;19.20;71.58
1472;BME280;963;42.644;23.336;2023-05-25T09:42:35;94374.63;;;19.19;71.22
1472;BME280;963;42.644;23.336;2023-05-25T09:45:01;94362.03;;;19.20;72.22
1472;BME280;963;42.644;23.336;2023-05-25T09:47:28;94359.56;;;19.09;73.08
1472;BME280;963;42.644;23.336;2023-05-25T09:49:55;94353.47;;;19.09;73.36
1472;BME280;963;42.644;23.336;2023-05-25T09:52:20;94359.72;;;18.98;73.08
1472;BME280;963;42.644;23.336;2023-05-25T09:54:47;94350.91;;;19.01;73.09
1472;BME280;963;42.644;23.336;2023-05-25T09:57:18;94336.13;;;18.97;72.47
1472;BME280;963;42.644;23.336;2023-05-25T09:59:43;94351.59;;;19.05;73.30
1472;BME280;963;42.644;23.336;2023-05-25T10:02:10;94337.00;;;19.14;73.87
1472;BME280;963;42.644;23.336;2023-05-25T10:04:36;94329.34;;;19.16;73.20
1472;BME280;963;42.644;23.336;2023-05-25T10:07:03;94335.53;;;19.32;73.81
1472;BME280;963;42.644;23.336;2023-05-25T10:09:29;94333.03;;;19.45;73.48
1472;BME280;963;42.644;23.336;2023-05-25T10:11:58;94330.81;;;19.63;72.60
1472;BME280;963;42.644;23.336;2023-05-25T10:14:26;94328.38;;;19.73;71.92
1472;BME280;963;42.644;23.336;2023-05-25T10:16:53;94324.28;;;19.88;72.63
1472;BME280;963;42.644;23.336;2023-05-25T10:21:57;94327.22;;;20.13;71.62
1472;BME280;963;42.644;23.336;2023-05-25T10:24:44;94328.84;;;20.27;70.89
1472;BME280;963;42.644;23.336;2023-05-25T10:27:17;94314.50;;;20.37;70.21
1472;BME280;963;42.644;23.336;2023-05-25T10:29:43;94314.72;;;20.46;69.00
1472;BME280;963;42.644;23.336;2023-05-25T10:32:10;94304.28;;;20.52;67.31
1472;BME280;963;42.644;23.336;2023-05-25T10:34:35;94300.53;;;20.66;66.98
1472;BME280;963;42.644;23.336;2023-05-25T10:37:02;94291.34;;;20.67;67.89
1472;BME280;963;42.644;23.336;2023-05-25T10:39:28;94283.91;;;20.74;69.56
1472;BME280;963;42.644;23.336;2023-05-25T10:41:53;94287.09;;;20.85;68.73
1472;BME280;963;42.644;23.336;2023-05-25T10:44:19;94279.97;;;20.79;68.54
1472;BME280;963;42.644;23.336;2023-05-25T10:46:45;94286.44;;;20.81;66.07
1472;BME280;963;42.644;23.336;2023-05-25T10:49:11;94283.41;;;20.79;66.25
1472;BME280;963;42.644;23.336;2023-05-25T10:51:40;94273.22;;;20.90;65.28
1472;BME280;963;42.644;23.336;2023-05-25T10:54:06;94268.06;;;20.83;66.18
1472;BME280;963;42.644;23.336;2023-05-25T10:56:32;94267.03;;;20.94;65.59
1472;BME280;963;42.644;23.336;2023-05-25T10:58:58;94271.53;;;20.97;64.91
1472;BME280;963;42.644;23.336;2023-05-25T11:01:24;94266.00;;;21.04;65.45
1472;BME280;963;42.644;23.336;2023-05-25T11:03:52;94255.13;;;21.11;65.91
1472;BME280;963;42.644;23.336;2023-05-25T11:06:20;94262.31;;;21.14;64.20
1472;BME280;963;42.644;23.336;2023-05-25T11:08:56;94267.50;;;21.21;63.20
1472;BME280;963;42.644;23.336;2023-05-25T11:14:28;94259.81;;;21.07;63.34
1472;BME280;963;42.644;23.336;2023-05-25T11:17:13;94256.97;;;21.14;63.00
1472;BME280;963;42.644;23.336;2023-05-25T11:19:52;94264.06;;;21.20;62.87
1472;BME280;963;42.644;23.336;2023-05-25T11:22:22;94253.88;;;21.15;62.56
1472;BME280;963;42.644;23.336;2023-05-25T11:24:56;94265.50;;;21.25;62.09
1472;BME280;963;42.644;23.336;2023-05-25T11:27:23;94267.50;;;21.21;62.85
1472;BME280;963;42.644;23.336;2023-05-25T11:29:52;94251.81;;;21.23;63.26
1472;BME280;963;42.644;23.336;2023-05-25T11:32:18;94262.41;;;21.27;62.57
1472;BME280;963;42.644;23.336;2023-05-25T11:34:46;94274.53;;;21.31;63.03
1472;BME280;963;42.644;23.336;2023-05-25T11:37:15;94269.09;;;21.35;63.15
1472;BME280;963;42.644;23.336;2023-05-25T11:39:45;94277.22;;;21.31;62.71
1472;BME280;963;42.644;23.336;2023-05-25T11:42:11;94260.50;;;21.27;62.62
1472;BME280;963;42.644;23.336;2023-05-25T11:44:39;94261.66;;;21.26;62.30
1472;BME280;963;42.644;23.336;2023-05-25T11:47:09;94267.00;;;21.26;62.04
1472;BME280;963;42.644;23.336;2023-05-25T11:49:43;94266.19;;;21.29;61.57
1472;BME280;963;42.644;23.336;2023-05-25T11:52:17;94268.53;;;21.27;61.30
1472;BME280;963;42.644;23.336;2023-05-25T11:54:43;94265.41;;;21.29;61.17
1472;BME280;963;42.644;23.336;2023-05-25T11:57:23;94262.66;;;21.32;60.84
1472;BME280;963;42.644;23.336;2023-05-25T11:59:56;94260.97;;;21.22;61.04
1472;BME280;963;42.644;23.336;2023-05-25T12:02:24;94250.44;;;21.15;61.99
1472;BME280;963;42.644;23.336;2023-05-25T12:04:59;94265.00;;;21.30;61.37
1472;BME280;963;42.644;23.336;2023-05-25T12:07:27;94255.69;;;21.18;61.48
1472;BME280;963;42.644;23.336;2023-05-25T12:10:09;94245.53;;;21.30;62.10
1472;BME280;963;42.644;23.336;2023-05-25T12:12:41;94272.75;;;21.41;61.53
1472;BME280;963;42.644;23.336;2023-05-25T12:15:12;94251.38;;;21.53;60.41
1472;BME280;963;42.644;23.336;2023-05-25T12:17:42;94255.94;;;21.69;59.57
1472;BME280;963;42.644;23.336;2023-05-25T12:20:10;94251.97;;;21.74;60.09
1472;BME280;963;42.644;23.336;2023-05-25T12:22:37;94263.56;;;21.83;57.49
1472;BME280;963;42.644;23.336;2023-05-25T12:25:07;94249.34;;;21.99;57.65
1472;BME280;963;42.644;23.336;2023-05-25T12:27:34;94228.41;;;21.81;58.05
1472;BME280;963;42.644;23.336;2023-05-25T12:30:01;94225.97;;;21.87;58.36
1472;BME280;963;42.644;23.336;2023-05-25T12:32:26;94224.44;;;21.73;56.95
1472;BME280;963;42.644;23.336;2023-05-25T12:35:01;94238.59;;;21.87;54.81
1472;BME280;963;42.644;23.336;2023-05-25T12:37:26;94221.19;;;22.07;55.00
1472;BME280;963;42.644;23.336;2023-05-25T12:39:52;94211.13;;;22.37;54.74
1472;BME280;963;42.644;23.336;2023-05-25T12:42:17;94200.66;;;22.64;53.73
1472;BME280;963;42.644;23.336;2023-05-25T12:44:44;94213.31;;;22.76;52.13
1472;BME280;963;42.644;23.336;2023-05-25T12:47:23;94204.84;;;22.65;53.58
1472;BME280;963;42.644;23.336;2023-05-25T12:50:12;94191.88;;;22.64;53.66
1472;BME280;963;42.644;23.336;2023-05-25T12:52:43;94186.50;;;22.76;53.67
1472;BME280;963;42.644;23.336;2023-05-25T12:55:25;94185.81;;;22.98;52.18
1472;BME280;963;42.644;23.336;2023-05-25T12:57:58;94184.00;;;23.38;51.43
1472;BME280;963;42.644;23.336;2023-05-25T13:00:32;94168.69;;;23.61;50.50
1472;BME280;963;42.644;23.336;2023-05-25T13:02:58;94160.19;;;23.93;50.17
1472;BME280;963;42.644;23.336;2023-05-25T13:05:28;94165.81;;;24.17;48.29
1472;BME280;963;42.644;23.336;2023-05-25T13:07:55;94159.59;;;24.39;49.40
1472;BME280;963;42.644;23.336;2023-05-25T13:10:22;94155.28;;;24.50;48.28
1472;BME280;963;42.644;23.336;2023-05-25T13:12:49;94158.63;;;24.63;48.17
1472;BME280;963;42.644;23.336;2023-05-25T13:15:18;94146.06;;;24.70;47.83
1472;BME280;963;42.644;23.336;2023-05-25T13:17:48;94145.16;;;24.63;48.27
1472;BME280;963;42.644;23.336;2023-05-25T13:20:15;94132.63;;;24.79;48.30
1472;BME280;963;42.644;23.336;2023-05-25T13:22:42;94131.72;;;24.82;47.73
1472;BME280;963;42.644;23.336;2023-05-25T13:25:10;94147.59;;;25.07;47.30
1472;BME280;963;42.644;23.336;2023-05-25T13:27:36;94133.84;;;25.14;45.96
1472;BME280;963;42.644;23.336;2023-05-25T13:30:06;94141.31;;;25.29;45.63
1472;BME280;963;42.644;23.336;2023-05-25T13:32:32;94141.44;;;25.43;44.32